Time;durP1;ratioP1;P1;durP2;ratioP2;P2;SDS_P1;SDS_P2;PMS_P1;PMS_P2;Temp;Humidity;BMP_temperature;BMP_pressure;BME280_temperature;BME280_humidity;BME280_pressure;Samples;Min_cycle;Max_cycle;Signal;HPM_P1;HPM_P2
2022/01/22 00:00:54;;;;;;;12.27;3.78;;;;;;;;;;5003755;28;20204;-48
2022/01/22 00:03:20;;;;;;;13.63;5.30;;;;;;;;;;5000282;28;20061;-47
2022/01/22 00:05:46;;;;;;;11.75;4.60;;;;;;;;;;4997456;28;20406;-47
2022/01/22 00:08:12;;;;;;;7.55;4.28;;;;;;;;;;5000881;28;20034;-47
2022/01/22 00:10:41;;;;;;;13.48;5.20;;;;;;;;;;5002638;28;20477;-50
2022/01/22 00:14:23;;;;;;;16.23;4.75;;;;;;;;;;4997424;28;20061;-48
2022/01/22 00:15:53;;;;;;;19.73;5.25;;;;;;;;;;4988838;28;20053;-48
2022/01/22 00:18:18;;;;;;;10.02;3.95;;;;;;;;;;4979859;28;20121;-49
2022/01/22 00:20:44;;;;;;;12.00;4.30;;;;;;;;;;4998623;28;20443;-48
2022/01/22 00:23:10;;;;;;;7.97;2.85;;;;;;;;;;5000111;28;20091;-48
2022/01/22 00:25:36;;;;;;;8.32;3.47;;;;;;;;;;4985404;28;20065;-47
2022/01/22 00:28:02;;;;;;;9.68;3.95;;;;;;;;;;5001168;28;20141;-46
2022/01/22 00:30:28;;;;;;;10.60;3.08;;;;;;;;;;4994432;28;20105;-47
2022/01/22 00:32:54;;;;;;;8.00;3.20;;;;;;;;;;4993288;28;20038;-48
2022/01/22 00:35:21;;;;;;;13.48;3.30;;;;;;;;;;4999640;28;20041;-46
2022/01/22 00:37:49;;;;;;;14.68;3.58;;;;;;;;;;4999507;28;20516;-47
2022/01/22 00:40:17;;;;;;;7.47;3.30;;;;;;;;;;4998180;28;20243;-48
2022/01/22 00:42:44;;;;;;;22.60;3.63;;;;;;;;;;5001063;28;20034;-48
2022/01/22 00:45:10;;;;;;;8.80;3.15;;;;;;;;;;4998873;28;20037;-47
2022/01/22 00:47:36;;;;;;;6.72;2.80;;;;;;;;;;5001546;28;20037;-52
2022/01/22 00:50:03;;;;;;;7.05;3.17;;;;;;;;;;4997015;28;20148;-49
2022/01/22 00:52:29;;;;;;;15.18;3.83;;;;;;;;;;4999287;28;20026;-52
2022/01/22 00:54:56;;;;;;;7.22;2.70;;;;;;;;;;5000775;28;20054;-47
2022/01/22 00:57:21;;;;;;;9.40;3.13;;;;;;;;;;4997054;28;20034;-51
2022/01/22 00:59:47;;;;;;;11.18;2.90;;;;;;;;;;4999630;28;20520;-52
2022/01/22 01:02:12;;;;;;;8.80;2.70;;;;;;;;;;5003864;28;20126;-52
2022/01/22 01:04:38;;;;;;;4.10;1.80;;;;;;;;;;5002907;28;20109;-53
2022/01/22 01:07:04;;;;;;;8.15;2.50;;;;;;;;;;4983801;28;20042;-51
2022/01/22 01:09:31;;;;;;;8.20;1.80;;;;;;;;;;5005161;28;20049;-48
2022/01/22 01:12:01;;;;;;;10.77;2.22;;;;;;;;;;5003680;28;20216;-46
2022/01/22 01:14:34;;;;;;;6.40;2.40;;;;;;;;;;5004723;28;20368;-46
2022/01/22 01:33:46;;;;;;;11.73;2.75;;;;;;;;;;4964197;28;20578;-47
2022/01/22 01:36:03;;;;;;;6.68;2.05;;;;;;;;;;4998016;28;20034;-47
2022/01/22 01:38:28;;;;;;;12.40;2.95;;;;;;;;;;5004074;28;20116;-48
2022/01/22 01:41:06;;;;;;;9.75;2.40;;;;;;;;;;5006532;28;20606;-48
2022/01/22 01:43:36;;;;;;;5.70;2.08;;;;;;;;;;5002024;28;20080;-47
2022/01/22 01:46:01;;;;;;;6.70;1.75;;;;;;;;;;5000378;28;20331;-48
2022/01/22 01:48:31;;;;;;;6.40;1.50;;;;;;;;;;5001601;28;20026;-47
2022/01/22 01:50:58;;;;;;;11.18;2.10;;;;;;;;;;5003621;28;20040;-51
2022/01/22 01:53:48;;;;;;;7.05;2.00;;;;;;;;;;5001757;28;20453;-50
2022/01/22 01:58:58;;;;;;;6.15;2.42;;;;;;;;;;5000246;28;20084;-51
2022/01/22 02:01:24;;;;;;;12.70;2.30;;;;;;;;;;4984679;28;20042;-49
2022/01/22 02:03:49;;;;;;;14.73;2.58;;;;;;;;;;4999864;28;20545;-47
2022/01/22 02:06:15;;;;;;;4.60;1.90;;;;;;;;;;5000584;28;20045;-47
2022/01/22 02:08:41;;;;;;;4.65;1.92;;;;;;;;;;5003568;28;20034;-47
2022/01/22 02:11:07;;;;;;;7.18;2.22;;;;;;;;;;4996499;28;20539;-48
2022/01/22 02:24:55;;;;;;;7.63;2.20;;;;;;;;;;5002215;28;20041;-46
2022/01/22 02:27:21;;;;;;;9.30;3.45;;;;;;;;;;5002465;28;20033;-51
2022/01/22 02:29:47;;;;;;;7.10;2.40;;;;;;;;;;5002437;28;20033;-51
2022/01/22 02:35:27;;;;;;;14.25;3.80;;;;;;;;;;4962443;28;20077;-48
2022/01/22 02:38:02;;;;;;;9.90;3.25;;;;;;;;;;5003848;28;20034;-50
2022/01/22 02:40:33;;;;;;;11.05;3.55;;;;;;;;;;5005381;28;20073;-48
2022/01/22 02:43:00;;;;;;;16.08;3.63;;;;;;;;;;5001267;28;20037;-48
2022/01/22 02:45:26;;;;;;;11.50;3.17;;;;;;;;;;5002011;28;20030;-49
2022/01/22 02:47:52;;;;;;;11.30;2.78;;;;;;;;;;5000690;28;20168;-48
2022/01/22 02:50:20;;;;;;;11.20;4.07;;;;;;;;;;4996496;28;20093;-50
2022/01/22 02:52:46;;;;;;;18.25;2.78;;;;;;;;;;5000498;28;20504;-47
2022/01/22 02:55:13;;;;;;;13.05;2.08;;;;;;;;;;5000373;28;20728;-52
2022/01/22 02:57:42;;;;;;;9.05;2.20;;;;;;;;;;5003694;28;20108;-51
2022/01/22 03:00:11;;;;;;;14.50;3.17;;;;;;;;;;5000052;28;20057;-48
2022/01/22 03:02:37;;;;;;;6.32;2.95;;;;;;;;;;4999468;28;20080;-49
2022/01/22 03:05:04;;;;;;;10.52;3.05;;;;;;;;;;5003123;28;20518;-49
2022/01/22 03:07:30;;;;;;;19.30;4.20;;;;;;;;;;5000946;28;20028;-47
2022/01/22 03:10:01;;;;;;;7.15;2.38;;;;;;;;;;4996348;28;20404;-49
2022/01/22 03:12:48;;;;;;;13.63;3.05;;;;;;;;;;5003060;28;20132;-49
2022/01/22 03:18:07;;;;;;;13.15;3.47;;;;;;;;;;5000716;28;20116;-48
2022/01/22 03:29:10;;;;;;;16.77;4.95;;;;;;;;;;5001954;28;20045;-47
2022/01/22 03:31:37;;;;;;;13.05;4.13;;;;;;;;;;5000670;28;20077;-46
2022/01/22 03:34:03;;;;;;;11.88;4.20;;;;;;;;;;5000722;28;20091;-47
2022/01/22 03:36:30;;;;;;;14.73;4.88;;;;;;;;;;5000418;28;20034;-47
2022/01/22 03:38:56;;;;;;;17.10;4.53;;;;;;;;;;4999310;28;20030;-49
2022/01/22 03:41:23;;;;;;;13.55;4.25;;;;;;;;;;4998526;28;20499;-47
2022/01/22 03:43:50;;;;;;;13.02;4.80;;;;;;;;;;5001050;28;20228;-50
2022/01/22 03:46:16;;;;;;;15.45;3.58;;;;;;;;;;4996640;28;20370;-50
2022/01/22 03:48:41;;;;;;;13.13;4.47;;;;;;;;;;5003623;28;20363;-48
2022/01/22 03:51:07;;;;;;;11.85;3.20;;;;;;;;;;4998681;28;20404;-50
2022/01/22 03:53:32;;;;;;;10.15;4.22;;;;;;;;;;4999866;28;20519;-50
2022/01/22 03:58:26;;;;;;;15.68;3.58;;;;;;;;;;4998147;28;20157;-50
2022/01/22 04:01:05;;;;;;;7.72;2.25;;;;;;;;;;5001466;28;20472;-47
2022/01/22 04:03:36;;;;;;;12.25;3.28;;;;;;;;;;4976904;28;20042;-48
2022/01/22 04:08:39;;;;;;;11.38;3.25;;;;;;;;;;5000693;28;20036;-46
2022/01/22 04:11:09;;;;;;;17.88;4.00;;;;;;;;;;4996728;28;20198;-47
2022/01/22 04:13:35;;;;;;;8.23;2.95;;;;;;;;;;5000992;28;20452;-49
2022/01/22 04:16:01;;;;;;;14.02;4.00;;;;;;;;;;4998592;28;20038;-50
2022/01/22 04:26:53;;;;;;;9.43;2.88;;;;;;;;;;4999591;28;20056;-47
2022/01/22 04:29:26;;;;;;;4.80;2.28;;;;;;;;;;4997280;28;20555;-47
2022/01/22 04:31:53;;;;;;;9.82;2.72;;;;;;;;;;4999196;28;20508;-47
2022/01/22 04:34:18;;;;;;;10.15;2.47;;;;;;;;;;4997561;28;20030;-49
2022/01/22 04:36:44;;;;;;;8.70;2.58;;;;;;;;;;5003695;28;20043;-47
2022/01/22 04:39:10;;;;;;;6.45;2.38;;;;;;;;;;5003294;28;20060;-46
2022/01/22 04:41:36;;;;;;;6.65;3.10;;;;;;;;;;5006780;28;20204;-50
2022/01/22 04:44:04;;;;;;;10.75;2.97;;;;;;;;;;4985020;28;20161;-48
2022/01/22 04:46:51;;;;;;;10.88;3.45;;;;;;;;;;5002896;28;20057;-50
2022/01/22 04:57:17;;;;;;;9.07;2.53;;;;;;;;;;5006281;28;20065;-52
2022/01/22 04:59:43;;;;;;;9.88;2.75;;;;;;;;;;5003014;28;20485;-48
2022/01/22 05:02:08;;;;;;;8.70;2.53;;;;;;;;;;5002907;28;20125;-46
2022/01/22 05:04:34;;;;;;;7.95;2.13;;;;;;;;;;5004184;28;20465;-47
2022/01/22 05:06:59;;;;;;;7.85;1.85;;;;;;;;;;5003194;28;20033;-47
2022/01/22 05:09:25;;;;;;;18.63;2.08;;;;;;;;;;5002344;28;20045;-47
2022/01/22 05:11:51;;;;;;;15.55;2.25;;;;;;;;;;5002652;28;20524;-48
2022/01/22 05:14:16;;;;;;;10.15;2.03;;;;;;;;;;5003435;28;20081;-46
2022/01/22 05:16:42;;;;;;;8.75;2.00;;;;;;;;;;5003393;28;20053;-46
2022/01/22 05:19:20;;;;;;;5.53;1.60;;;;;;;;;;5001517;28;20112;-47
2022/01/22 05:21:47;;;;;;;4.90;1.52;;;;;;;;;;5001818;28;20112;-47
2022/01/22 05:24:17;;;;;;;8.23;1.60;;;;;;;;;;5003852;28;20037;-48
2022/01/22 05:37:35;;;;;;;7.72;2.20;;;;;;;;;;4989626;28;20040;-51
2022/01/22 05:40:00;;;;;;;13.75;3.08;;;;;;;;;;4998930;28;20038;-50
2022/01/22 05:42:26;;;;;;;7.22;2.42;;;;;;;;;;5002582;28;20042;-50
2022/01/22 05:44:52;;;;;;;10.90;3.20;;;;;;;;;;5001999;28;20038;-51
2022/01/22 05:47:22;;;;;;;15.55;3.58;;;;;;;;;;4983275;28;20621;-52
2022/01/22 05:49:48;;;;;;;9.80;2.85;;;;;;;;;;5000462;28;20041;-51
2022/01/22 05:52:19;;;;;;;9.90;3.35;;;;;;;;;;4996462;28;20038;-50
2022/01/22 05:59:57;;;;;;;6.75;2.53;;;;;;;;;;5001269;28;20036;-47
2022/01/22 06:02:23;;;;;;;8.40;2.70;;;;;;;;;;5005254;28;20037;-48
2022/01/22 06:04:48;;;;;;;10.82;2.47;;;;;;;;;;5001326;28;20109;-47
2022/01/22 06:07:14;;;;;;;15.70;2.70;;;;;;;;;;4996534;28;20046;-52
2022/01/22 06:09:52;;;;;;;8.38;2.53;;;;;;;;;;5002001;28;20030;-49
2022/01/22 06:12:31;;;;;;;8.07;2.60;;;;;;;;;;5004637;28;20092;-47
2022/01/22 06:14:57;;;;;;;12.15;3.17;;;;;;;;;;4998387;28;20179;-48
2022/01/22 06:17:22;;;;;;;5.53;1.70;;;;;;;;;;4997725;28;20564;-50
2022/01/22 06:19:48;;;;;;;14.57;3.20;;;;;;;;;;5004942;28;20162;-48
2022/01/22 06:22:13;;;;;;;4.25;2.22;;;;;;;;;;5004044;28;20044;-49
2022/01/22 06:24:39;;;;;;;14.38;3.35;;;;;;;;;;5002109;28;20064;-47
2022/01/22 06:27:04;;;;;;;6.38;3.17;;;;;;;;;;5002228;28;20073;-47
2022/01/22 06:29:30;;;;;;;8.70;3.33;;;;;;;;;;5005010;28;20396;-51
2022/01/22 06:31:55;;;;;;;12.38;3.47;;;;;;;;;;4999791;28;20532;-50
2022/01/22 06:34:21;;;;;;;11.35;3.63;;;;;;;;;;4999614;28;20125;-47
2022/01/22 06:36:46;;;;;;;13.48;3.58;;;;;;;;;;4985555;28;20038;-52
2022/01/22 06:39:14;;;;;;;14.85;4.15;;;;;;;;;;4982754;28;20043;-49
2022/01/22 06:41:44;;;;;;;7.10;2.95;;;;;;;;;;5001703;28;20029;-46
2022/01/22 06:44:20;;;;;;;10.98;3.45;;;;;;;;;;5000420;28;20519;-48
2022/01/22 06:46:49;;;;;;;7.97;3.40;;;;;;;;;;5000560;28;20048;-48
2022/01/22 06:49:15;;;;;;;6.85;2.92;;;;;;;;;;5000963;28;20101;-49
2022/01/22 06:51:42;;;;;;;7.03;3.00;;;;;;;;;;5000536;28;20080;-50
2022/01/22 06:54:10;;;;;;;13.63;3.15;;;;;;;;;;5002446;28;20027;-47
2022/01/22 06:56:37;;;;;;;12.80;2.65;;;;;;;;;;5002203;28;20554;-50
2022/01/22 06:59:06;;;;;;;9.05;2.88;;;;;;;;;;4998859;28;20060;-50
2022/01/22 07:01:32;;;;;;;8.23;2.78;;;;;;;;;;5000119;28;20022;-51
2022/01/22 07:03:57;;;;;;;7.68;2.28;;;;;;;;;;5001159;28;20034;-52
2022/01/22 07:06:23;;;;;;;9.85;2.78;;;;;;;;;;4999237;28;20409;-51
2022/01/22 07:08:49;;;;;;;6.38;2.42;;;;;;;;;;5000074;28;20038;-53
2022/01/22 07:11:14;;;;;;;4.35;2.08;;;;;;;;;;4995900;28;20108;-47
2022/01/22 07:13:40;;;;;;;8.20;2.30;;;;;;;;;;4980943;28;20397;-48
2022/01/22 07:16:06;;;;;;;7.15;2.00;;;;;;;;;;4998135;28;20042;-50
2022/01/22 07:18:32;;;;;;;7.07;2.28;;;;;;;;;;4998414;28;20082;-52
2022/01/22 07:20:58;;;;;;;7.60;1.83;;;;;;;;;;4996505;28;20132;-50
2022/01/22 07:26:03;;;;;;;3.90;1.20;;;;;;;;;;4998467;28;20374;-49
2022/01/22 07:28:29;;;;;;;11.27;1.50;;;;;;;;;;4998762;28;20022;-48
2022/01/22 07:30:54;;;;;;;9.95;1.27;;;;;;;;;;5000062;28;20026;-50
2022/01/22 07:33:20;;;;;;;7.00;1.08;;;;;;;;;;5001135;28;20365;-50
2022/01/22 07:35:47;;;;;;;8.35;1.92;;;;;;;;;;4997945;28;20473;-48
2022/01/22 07:38:12;;;;;;;10.80;1.25;;;;;;;;;;4998054;28;20108;-48
2022/01/22 07:40:38;;;;;;;12.95;1.83;;;;;;;;;;4997974;28;20117;-49
2022/01/22 07:43:04;;;;;;;4.20;1.42;;;;;;;;;;4999342;28;20444;-51
2022/01/22 07:45:30;;;;;;;11.65;2.17;;;;;;;;;;4996957;28;20068;-48
2022/01/22 07:47:55;;;;;;;8.10;1.80;;;;;;;;;;4993919;28;20029;-48
2022/01/22 07:50:21;;;;;;;13.32;2.33;;;;;;;;;;5000484;28;20056;-49
2022/01/22 07:52:47;;;;;;;9.52;2.08;;;;;;;;;;4981757;28;20202;-50
2022/01/22 07:55:13;;;;;;;6.50;2.08;;;;;;;;;;5000670;28;20042;-49
2022/01/22 07:57:38;;;;;;;12.65;2.45;;;;;;;;;;5001440;28;20273;-48
2022/01/22 08:00:06;;;;;;;14.40;2.30;;;;;;;;;;4997673;28;20261;-48
2022/01/22 08:02:32;;;;;;;8.85;2.78;;;;;;;;;;4999076;28;20353;-47
2022/01/22 08:04:57;;;;;;;8.77;3.00;;;;;;;;;;4981755;28;20037;-52
2022/01/22 08:07:23;;;;;;;8.15;2.40;;;;;;;;;;4996055;28;20065;-51
2022/01/22 08:09:50;;;;;;;9.90;2.97;;;;;;;;;;4996877;28;20478;-47
2022/01/22 08:12:16;;;;;;;16.42;3.45;;;;;;;;;;4985993;28;20128;-47
2022/01/22 08:14:42;;;;;;;14.20;3.67;;;;;;;;;;4997966;28;20121;-48
2022/01/22 08:17:08;;;;;;;10.25;3.60;;;;;;;;;;4995084;28;20117;-48
2022/01/22 08:19:33;;;;;;;8.48;2.63;;;;;;;;;;4994118;28;20038;-48
2022/01/22 08:21:59;;;;;;;10.93;2.88;;;;;;;;;;5000754;28;20408;-48
2022/01/22 08:24:26;;;;;;;13.82;2.83;;;;;;;;;;4994474;28;20038;-47
2022/01/22 08:27:21;;;;;;;21.92;3.33;;;;;;;;;;5000867;28;20034;-48
2022/01/22 08:29:39;;;;;;;6.15;2.83;;;;;;;;;;4995026;28;20060;-49
2022/01/22 08:32:23;;;;;;;10.98;3.00;;;;;;;;;;4985350;28;20116;-52
2022/01/22 08:37:33;;;;;;;7.72;2.45;;;;;;;;;;5001781;28;20053;-48
2022/01/22 08:39:58;;;;;;;9.70;2.72;;;;;;;;;;5000945;28;20033;-52
2022/01/22 08:42:24;;;;;;;15.02;3.22;;;;;;;;;;4998958;28;20079;-50
2022/01/22 08:44:49;;;;;;;7.78;3.60;;;;;;;;;;5002877;28;20042;-51
2022/01/22 08:47:16;;;;;;;11.13;3.50;;;;;;;;;;4998965;28;20049;-49
2022/01/22 08:49:42;;;;;;;12.95;3.75;;;;;;;;;;4996163;28;20037;-50
2022/01/22 08:52:12;;;;;;;8.93;4.07;;;;;;;;;;4999901;28;20116;-50
2022/01/22 08:54:39;;;;;;;14.30;3.72;;;;;;;;;;4998128;28;20536;-51
2022/01/22 08:57:04;;;;;;;13.35;3.85;;;;;;;;;;5001783;28;20050;-51
2022/01/22 08:59:30;;;;;;;13.38;4.68;;;;;;;;;;4997145;28;20044;-50
2022/01/22 09:01:56;;;;;;;9.80;3.38;;;;;;;;;;4999390;28;20087;-49
2022/01/22 09:04:21;;;;;;;11.60;2.45;;;;;;;;;;4999601;28;20551;-48
2022/01/22 09:06:47;;;;;;;13.02;3.65;;;;;;;;;;5000351;28;20033;-47
2022/01/22 09:09:13;;;;;;;7.75;3.13;;;;;;;;;;4996589;28;20037;-48
2022/01/22 09:11:41;;;;;;;13.40;2.85;;;;;;;;;;5000970;28;20145;-49
2022/01/22 09:14:09;;;;;;;10.60;3.10;;;;;;;;;;4995351;28;20050;-49
2022/01/22 09:16:36;;;;;;;13.02;3.53;;;;;;;;;;5000589;28;20421;-48
2022/01/22 09:19:09;;;;;;;15.27;3.58;;;;;;;;;;4996221;28;20778;-49
2022/01/22 09:21:36;;;;;;;9.40;3.85;;;;;;;;;;4999658;28;20120;-49
2022/01/22 09:24:02;;;;;;;12.13;3.90;;;;;;;;;;5000366;28;20030;-51
2022/01/22 09:26:29;;;;;;;15.00;3.50;;;;;;;;;;4998085;28;20025;-48
2022/01/22 09:28:58;;;;;;;11.63;4.47;;;;;;;;;;4998685;28;20492;-48
2022/01/22 09:31:24;;;;;;;10.85;3.17;;;;;;;;;;5002646;28;20457;-48
2022/01/22 09:33:50;;;;;;;12.07;3.47;;;;;;;;;;4994616;28;20257;-47
2022/01/22 09:36:16;;;;;;;14.60;3.90;;;;;;;;;;4987310;28;20729;-50
2022/01/22 09:38:41;;;;;;;12.40;3.70;;;;;;;;;;5002403;28;20038;-53
2022/01/22 09:41:06;;;;;;;13.50;3.20;;;;;;;;;;4999849;28;20535;-48
2022/01/22 09:43:33;;;;;;;8.10;2.92;;;;;;;;;;5002657;28;20041;-48
2022/01/22 09:45:58;;;;;;;8.05;2.88;;;;;;;;;;5003471;28;20325;-49
2022/01/22 09:48:24;;;;;;;7.55;3.25;;;;;;;;;;4984778;28;20037;-47
2022/01/22 09:50:50;;;;;;;14.73;3.55;;;;;;;;;;5005546;28;20417;-52
2022/01/22 09:53:15;;;;;;;5.47;2.42;;;;;;;;;;5001731;28;20030;-51
2022/01/22 09:55:41;;;;;;;10.80;3.63;;;;;;;;;;5002959;28;20060;-53
2022/01/22 09:58:07;;;;;;;7.68;2.80;;;;;;;;;;5002008;28;20523;-52
2022/01/22 10:00:33;;;;;;;6.28;3.03;;;;;;;;;;5001849;28;20065;-51
2022/01/22 10:02:58;;;;;;;7.43;2.20;;;;;;;;;;4998477;28;20493;-54
2022/01/22 10:05:37;;;;;;;6.88;2.38;;;;;;;;;;5001188;28;20033;-52
2022/01/22 10:08:21;;;;;;;9.60;2.70;;;;;;;;;;5000453;28;20026;-52
2022/01/22 10:10:48;;;;;;;6.07;2.08;;;;;;;;;;5000893;28;20030;-51
2022/01/22 10:13:14;;;;;;;7.13;2.28;;;;;;;;;;5002048;28;20058;-51
2022/01/22 10:15:41;;;;;;;7.10;2.58;;;;;;;;;;4998553;28;20026;-49
2022/01/22 10:18:07;;;;;;;9.68;3.03;;;;;;;;;;5001818;28;20048;-52
2022/01/22 10:20:41;;;;;;;6.10;2.85;;;;;;;;;;4993796;28;20096;-48
2022/01/22 10:23:18;;;;;;;5.68;2.47;;;;;;;;;;4999642;28;20018;-48
2022/01/22 10:25:49;;;;;;;5.57;2.97;;;;;;;;;;5001757;28;20034;-48
2022/01/22 10:28:22;;;;;;;5.28;2.28;;;;;;;;;;5002483;28;20412;-47
2022/01/22 10:30:52;;;;;;;6.65;2.50;;;;;;;;;;5000332;28;20049;-47
2022/01/22 10:33:37;;;;;;;5.97;2.03;;;;;;;;;;5000199;28;20123;-47
2022/01/22 10:36:08;;;;;;;6.47;1.90;;;;;;;;;;5000195;28;20401;-47
2022/01/22 10:38:39;;;;;;;3.65;1.70;;;;;;;;;;4998395;28;20032;-48
2022/01/22 10:41:07;;;;;;;2.90;1.38;;;;;;;;;;5001105;28;20049;-48
2022/01/22 10:43:34;;;;;;;3.88;1.63;;;;;;;;;;4995891;28;20022;-48
2022/01/22 10:46:11;;;;;;;4.47;1.38;;;;;;;;;;4981216;28;20041;-50
2022/01/22 10:48:39;;;;;;;4.20;1.65;;;;;;;;;;4998868;28;20022;-51
2022/01/22 10:51:12;;;;;;;2.83;1.00;;;;;;;;;;5003442;28;20033;-48
2022/01/22 10:53:44;;;;;;;5.10;1.17;;;;;;;;;;5001076;28;20030;-50
2022/01/22 10:56:22;;;;;;;2.08;0.80;;;;;;;;;;4999482;28;20117;-52
2022/01/22 10:59:07;;;;;;;4.38;0.75;;;;;;;;;;5003598;28;20562;-53
2022/01/22 11:01:54;;;;;;;2.80;1.02;;;;;;;;;;5000902;28;20040;-51
2022/01/22 11:04:38;;;;;;;1.27;0.80;;;;;;;;;;5000351;28;20138;-52
2022/01/22 11:07:07;;;;;;;0.85;0.55;;;;;;;;;;5000691;28;20494;-52
2022/01/22 11:09:34;;;;;;;4.03;0.82;;;;;;;;;;4998226;28;20708;-52
2022/01/22 11:12:04;;;;;;;5.38;1.05;;;;;;;;;;5002982;28;20054;-53
2022/01/22 11:14:33;;;;;;;2.38;1.15;;;;;;;;;;4999935;28;20366;-52
2022/01/22 11:17:00;;;;;;;3.88;0.80;;;;;;;;;;5000886;28;20504;-48
2022/01/22 11:19:32;;;;;;;2.75;0.65;;;;;;;;;;4997101;28;20068;-47
2022/01/22 11:22:06;;;;;;;3.85;0.60;;;;;;;;;;4998865;28;20544;-49
2022/01/22 11:24:41;;;;;;;1.25;0.70;;;;;;;;;;5001010;28;20327;-49
2022/01/22 11:27:09;;;;;;;1.75;0.73;;;;;;;;;;5004866;28;20032;-50
2022/01/22 11:29:42;;;;;;;5.70;1.27;;;;;;;;;;5001409;28;20021;-49
2022/01/22 11:32:13;;;;;;;2.65;1.17;;;;;;;;;;5002105;28;20513;-48
2022/01/22 11:34:42;;;;;;;3.95;0.90;;;;;;;;;;4998795;28;20592;-48
2022/01/22 11:37:41;;;;;;;2.50;1.13;;;;;;;;;;5000822;28;20487;-47
2022/01/22 11:40:21;;;;;;;4.65;0.93;;;;;;;;;;5002137;28;20415;-48
2022/01/22 11:43:12;;;;;;;1.45;0.63;;;;;;;;;;4999271;28;20484;-50
2022/01/22 11:45:46;;;;;;;5.30;0.50;;;;;;;;;;5002576;28;20026;-48
2022/01/22 11:48:24;;;;;;;3.88;0.88;;;;;;;;;;4997809;28;20030;-51
2022/01/22 11:51:10;;;;;;;5.30;0.88;;;;;;;;;;4981922;28;20366;-49
2022/01/22 11:53:37;;;;;;;5.30;0.80;;;;;;;;;;4997016;28;20783;-49
2022/01/22 11:56:12;;;;;;;3.38;1.20;;;;;;;;;;5001278;28;20129;-50
2022/01/22 11:59:17;;;;;;;2.33;1.05;;;;;;;;;;4992903;28;20576;-52
2022/01/22 12:01:43;;;;;;;2.03;0.85;;;;;;;;;;4986015;28;20076;-51
2022/01/22 12:04:11;;;;;;;6.93;1.20;;;;;;;;;;4998351;28;23175;-51
2022/01/22 12:06:37;;;;;;;3.42;1.10;;;;;;;;;;4998426;28;20109;-48
2022/01/22 12:09:25;;;;;;;3.53;0.80;;;;;;;;;;4984412;28;20026;-48
2022/01/22 12:14:56;;;;;;;7.30;0.93;;;;;;;;;;4998865;28;20125;-48
2022/01/22 12:23:10;;;;;;;3.67;0.90;;;;;;;;;;4998875;28;20535;-48
2022/01/22 12:25:35;;;;;;;6.63;0.80;;;;;;;;;;4999580;28;20034;-49
2022/01/22 12:28:08;;;;;;;2.25;0.60;;;;;;;;;;4996958;28;20022;-49
2022/01/22 12:30:46;;;;;;;5.20;0.98;;;;;;;;;;5001758;28;20030;-48
2022/01/22 12:33:35;;;;;;;4.00;1.00;;;;;;;;;;4994296;28;20025;-48
2022/01/22 12:36:04;;;;;;;4.07;1.23;;;;;;;;;;5001909;28;20034;-51
2022/01/22 12:38:48;;;;;;;1.55;0.60;;;;;;;;;;5002853;28;20030;-48
2022/01/22 12:41:29;;;;;;;1.98;0.70;;;;;;;;;;4997121;28;20335;-48
2022/01/22 12:44:09;;;;;;;4.70;1.05;;;;;;;;;;4999992;28;20034;-51
2022/01/22 12:46:36;;;;;;;4.43;0.75;;;;;;;;;;5000487;28;20029;-50
2022/01/22 12:49:04;;;;;;;4.95;1.30;;;;;;;;;;4997821;28;20479;-49
2022/01/22 12:51:31;;;;;;;6.57;1.00;;;;;;;;;;4993910;28;20171;-48
2022/01/22 12:53:56;;;;;;;4.00;1.70;;;;;;;;;;5001126;28;20060;-51
2022/01/22 12:59:08;;;;;;;4.32;1.23;;;;;;;;;;5000169;28;20444;-51
2022/01/22 13:01:36;;;;;;;3.65;1.50;;;;;;;;;;4999769;28;20559;-52
2022/01/22 13:04:06;;;;;;;6.75;1.48;;;;;;;;;;5001791;28;20077;-49
2022/01/22 13:06:42;;;;;;;5.38;1.15;;;;;;;;;;5002479;28;20218;-52
2022/01/22 13:09:10;;;;;;;2.70;0.73;;;;;;;;;;5005363;28;20113;-50
2022/01/22 13:11:44;;;;;;;5.22;1.45;;;;;;;;;;5004436;28;20058;-50
2022/01/22 13:14:10;;;;;;;3.67;1.55;;;;;;;;;;5000521;28;20041;-47
2022/01/22 13:16:46;;;;;;;7.85;1.48;;;;;;;;;;5004496;28;20101;-47
2022/01/22 13:19:11;;;;;;;5.55;1.80;;;;;;;;;;5005354;28;20372;-47
2022/01/22 13:21:37;;;;;;;5.20;1.92;;;;;;;;;;4979009;28;20112;-50
2022/01/22 13:24:10;;;;;;;10.95;2.35;;;;;;;;;;5004269;28;20026;-48
2022/01/22 13:26:50;;;;;;;9.68;2.20;;;;;;;;;;5003262;28;20030;-48
2022/01/22 13:29:19;;;;;;;2.97;1.02;;;;;;;;;;5005329;28;20181;-47
2022/01/22 13:32:39;;;;;;;5.30;1.35;;;;;;;;;;4989633;28;20030;-47
2022/01/22 13:41:05;;;;;;;4.95;1.73;;;;;;;;;;5003904;28;20420;-52
2022/01/22 13:49:29;;;;;;;7.63;2.28;;;;;;;;;;5001641;28;20380;-48
2022/01/22 13:52:03;;;;;;;5.25;2.22;;;;;;;;;;5008668;28;20714;-48
2022/01/22 13:54:36;;;;;;;7.43;2.38;;;;;;;;;;5000135;28;20025;-50
2022/01/22 13:57:08;;;;;;;8.20;2.05;;;;;;;;;;5002168;28;20022;-51
2022/01/22 13:59:40;;;;;;;7.13;2.25;;;;;;;;;;5001159;28;20038;-48
2022/01/22 14:02:30;;;;;;;8.75;2.40;;;;;;;;;;4985696;28;20030;-49
2022/01/22 14:04:59;;;;;;;9.63;2.53;;;;;;;;;;5000125;28;20034;-48
2022/01/22 14:07:32;;;;;;;6.47;2.20;;;;;;;;;;5003536;28;20124;-52
2022/01/22 14:10:03;;;;;;;15.60;3.75;;;;;;;;;;5001645;28;20034;-51
2022/01/22 14:12:55;;;;;;;3.05;1.42;;;;;;;;;;4996978;28;20045;-48
2022/01/22 14:15:23;;;;;;;10.15;3.58;;;;;;;;;;4996360;28;20068;-48
2022/01/22 14:18:16;;;;;;;11.85;3.40;;;;;;;;;;4995936;28;20033;-49
2022/01/22 14:21:06;;;;;;;10.52;3.30;;;;;;;;;;4995365;28;20037;-49
2022/01/22 14:23:33;;;;;;;5.88;2.13;;;;;;;;;;4995262;28;20037;-51
2022/01/22 14:26:29;;;;;;;8.88;2.60;;;;;;;;;;4996728;28;20030;-53
2022/01/22 14:29:01;;;;;;;7.03;2.70;;;;;;;;;;4988766;28;20042;-53
2022/01/22 14:31:53;;;;;;;6.88;1.98;;;;;;;;;;4976974;28;20038;-52
2022/01/22 14:34:39;;;;;;;7.97;2.70;;;;;;;;;;4995910;28;20034;-51
2022/01/22 14:37:06;;;;;;;13.77;3.25;;;;;;;;;;4999122;28;20798;-53
2022/01/22 14:45:23;;;;;;;10.77;3.30;;;;;;;;;;5003517;28;20041;-50
2022/01/22 14:47:53;;;;;;;12.82;3.95;;;;;;;;;;5003741;28;20051;-48
2022/01/22 14:50:19;;;;;;;8.40;3.20;;;;;;;;;;5001756;28;20034;-50
2022/01/22 14:52:47;;;;;;;12.88;3.50;;;;;;;;;;5001960;28;20033;-51
2022/01/22 14:55:13;;;;;;;10.95;3.47;;;;;;;;;;5002972;28;20081;-51
2022/01/22 14:57:43;;;;;;;12.10;4.18;;;;;;;;;;5003913;28;20036;-48
2022/01/22 15:00:15;;;;;;;8.18;3.10;;;;;;;;;;4997416;28;20046;-50
2022/01/22 15:02:42;;;;;;;13.88;3.90;;;;;;;;;;5003496;28;20023;-47
2022/01/22 15:05:11;;;;;;;6.93;3.05;;;;;;;;;;4997906;28;20034;-50
2022/01/22 15:07:38;;;;;;;9.95;3.00;;;;;;;;;;4999800;28;20029;-49
2022/01/22 15:10:06;;;;;;;7.93;3.28;;;;;;;;;;4998546;28;20036;-49
2022/01/22 15:12:33;;;;;;;13.45;3.60;;;;;;;;;;5001480;28;20057;-48
2022/01/22 15:14:58;;;;;;;12.68;3.38;;;;;;;;;;5002528;28;20041;-51
2022/01/22 15:19:51;;;;;;;14.27;4.68;;;;;;;;;;5002631;28;20056;-48
2022/01/22 15:22:18;;;;;;;21.85;5.47;;;;;;;;;;5001023;28;20028;-50
2022/01/22 15:24:46;;;;;;;16.48;4.70;;;;;;;;;;5002959;28;20026;-52
2022/01/22 15:27:13;;;;;;;16.65;4.78;;;;;;;;;;5000304;28;20037;-48
2022/01/22 15:35:15;;;;;;;9.73;3.75;;;;;;;;;;5000390;28;20022;-48
2022/01/22 15:37:47;;;;;;;9.95;3.58;;;;;;;;;;5001653;28;20025;-52
2022/01/22 15:40:14;;;;;;;17.20;5.05;;;;;;;;;;5001263;28;20034;-50
2022/01/22 15:42:39;;;;;;;14.68;4.47;;;;;;;;;;4975639;28;20034;-48
2022/01/22 15:45:05;;;;;;;13.82;5.35;;;;;;;;;;4998318;28;20476;-47
2022/01/22 15:47:31;;;;;;;10.50;4.75;;;;;;;;;;5000021;28;21001;-54
2022/01/22 15:49:58;;;;;;;11.73;4.75;;;;;;;;;;4996350;28;20443;-48
2022/01/22 15:52:27;;;;;;;19.30;6.15;;;;;;;;;;5000690;28;20029;-51
2022/01/22 15:54:53;;;;;;;16.45;5.35;;;;;;;;;;4998903;28;20037;-56
2022/01/22 15:57:21;;;;;;;11.95;4.85;;;;;;;;;;5002150;28;20042;-48
2022/01/22 15:59:46;;;;;;;15.27;5.38;;;;;;;;;;5006071;28;20033;-48
2022/01/22 16:02:12;;;;;;;17.38;5.95;;;;;;;;;;5000774;28;20033;-51
2022/01/22 16:04:38;;;;;;;17.58;7.32;;;;;;;;;;5001154;28;20042;-50
2022/01/22 16:07:18;;;;;;;17.90;5.00;;;;;;;;;;5002342;28;20985;-49
2022/01/22 16:09:44;;;;;;;16.17;5.43;;;;;;;;;;4995734;28;20630;-49
2022/01/22 16:12:10;;;;;;;15.10;5.72;;;;;;;;;;5001253;28;20050;-50
2022/01/22 16:14:37;;;;;;;14.82;5.28;;;;;;;;;;5001619;28;20037;-49
2022/01/22 16:17:04;;;;;;;13.70;5.43;;;;;;;;;;4999346;28;20092;-50
2022/01/22 16:19:30;;;;;;;15.38;6.45;;;;;;;;;;5000053;28;20400;-49
2022/01/22 16:21:57;;;;;;;12.73;4.32;;;;;;;;;;5000964;28;20094;-49
2022/01/22 16:24:22;;;;;;;8.75;4.00;;;;;;;;;;5000409;28;20077;-53
2022/01/22 16:26:48;;;;;;;11.65;4.32;;;;;;;;;;4999465;28;20113;-50
2022/01/22 16:29:14;;;;;;;11.68;4.15;;;;;;;;;;4967703;28;20516;-51
2022/01/22 16:31:39;;;;;;;11.88;4.18;;;;;;;;;;5004644;28;20037;-51
2022/01/22 16:34:07;;;;;;;16.50;5.50;;;;;;;;;;5004748;28;20030;-49
2022/01/22 16:36:34;;;;;;;12.95;4.95;;;;;;;;;;5005072;28;20108;-52
2022/01/22 16:39:00;;;;;;;15.77;5.20;;;;;;;;;;5003823;28;20030;-49
2022/01/22 16:41:26;;;;;;;13.13;3.85;;;;;;;;;;5002128;28;20041;-51
2022/01/22 16:43:58;;;;;;;12.52;4.10;;;;;;;;;;5005130;28;20033;-51
2022/01/22 16:57:09;;;;;;;12.15;4.00;;;;;;;;;;5002773;28;20511;-52
2022/01/22 16:59:37;;;;;;;16.42;5.55;;;;;;;;;;5002545;28;20040;-53
2022/01/22 17:02:04;;;;;;;13.70;5.50;;;;;;;;;;5004480;28;20038;-53
2022/01/22 17:04:42;;;;;;;16.73;6.10;;;;;;;;;;5004774;28;20029;-52
2022/01/22 17:07:11;;;;;;;12.27;4.78;;;;;;;;;;5007846;28;20036;-52